Terminal Aerodrome Forecast
Issued by NWS

Home | Current Version | Previous Version | Text Only | Print | Product List | Glossary On
Versions: 1 2 3 4 5 6 7 8 9 10 11 12 13
000
FTUS43 KGLD 202320
TAFMCK
TAF
KMCK 202320Z 2100/2124 29007KT P6SM BKN250
     FM211300 33012KT P6SM SCT070 BKN100
     FM211500 01016G24KT P6SM SCT040 BKN060
     FM212100 35011KT P6SM SCT040 SCT300=

USA.gov is the U.S. government's official web portal to all federal, state and local government web resources and services.